Time;durP1;ratioP1;P1;durP2;ratioP2;P2;SDS_P1;SDS_P2;PMS_P1;PMS_P2;Temp;Humidity;BMP_temperature;BMP_pressure;BME280_temperature;BME280_humidity;BME280_pressure;Samples;Min_cycle;Max_cycle;Signal;HPM_P1;HPM_P2
2023/04/30 00:01:46;;;;;;;39.50;18.02;;;;;;;11.24;58.21;100412.47;5015813;28;20018;-82
2023/04/30 00:04:11;;;;;;;33.38;18.33;;;;;;;11.07;58.29;100405.84;5028706;28;20045;-81
2023/04/30 00:06:37;;;;;;;67.43;20.02;;;;;;;11.11;58.14;100403.75;5029743;28;20026;-86
2023/04/30 00:09:02;;;;;;;34.40;17.75;;;;;;;11.05;57.67;100388.16;5021767;28;20026;-83
2023/04/30 00:11:28;;;;;;;32.55;16.75;;;;;;;11.31;57.47;100435.19;5015481;28;20034;-84
2023/04/30 00:13:55;;;;;;;39.17;16.23;;;;;;;11.28;57.65;100427.38;4996686;28;20026;-81
2023/04/30 00:16:21;;;;;;;30.80;16.52;;;;;;;11.35;57.25;100436.59;4997648;28;20054;-81
2023/04/30 00:18:46;;;;;;;35.83;17.05;;;;;;;11.14;57.25;100400.81;4999953;28;20465;-82
2023/04/30 00:21:12;;;;;;;52.53;17.05;;;;;;;11.06;57.82;100401.47;5004443;28;20033;-79
2023/04/30 00:23:38;;;;;;;36.33;17.02;;;;;;;11.13;57.80;100417.94;5000190;28;20027;-83
2023/04/30 00:26:03;;;;;;;40.97;16.45;;;;;;;11.15;57.46;100424.03;4995365;28;20038;-83
2023/04/30 00:28:29;;;;;;;33.20;16.45;;;;;;;11.23;57.59;100435.00;4995347;28;20052;-82
2023/04/30 00:30:54;;;;;;;27.67;16.67;;;;;;;11.18;57.38;100413.00;4994896;28;20417;-82
2023/04/30 00:33:20;;;;;;;30.75;15.63;;;;;;;11.22;56.97;100425.22;4994809;28;20085;-83
2023/04/30 00:35:46;;;;;;;43.30;17.25;;;;;;;11.05;56.69;100399.78;4994347;28;20038;-83
2023/04/30 00:38:11;;;;;;;39.33;17.08;;;;;;;11.21;56.86;100434.28;4994946;28;20030;-83
2023/04/30 00:40:39;;;;;;;38.55;16.80;;;;;;;11.06;57.36;100403.31;4996329;28;20504;-84
2023/04/30 00:43:04;;;;;;;33.70;15.18;;;;;;;11.20;56.96;100419.09;5011072;28;20022;-84
2023/04/30 00:45:30;;;;;;;40.22;17.27;;;;;;;11.00;57.20;100388.56;4997941;28;20090;-82
2023/04/30 00:47:56;;;;;;;40.50;16.45;;;;;;;10.99;57.54;100399.44;4994359;28;20409;-84
2023/04/30 00:50:22;;;;;;;60.30;15.93;;;;;;;11.01;57.52;100398.31;4994389;28;20109;-82
2023/04/30 00:52:47;;;;;;;33.42;15.52;;;;;;;11.07;57.64;100408.53;4994945;28;20026;-83
2023/04/30 00:55:13;;;;;;;29.38;16.30;;;;;;;11.12;57.28;100410.84;4994764;28;20035;-83
2023/04/30 00:57:39;;;;;;;29.08;15.50;;;;;;;10.77;57.24;100377.09;4994677;28;20034;-82
2023/04/30 01:00:10;;;;;;;33.40;16.08;;;;;;;10.84;57.18;100380.09;4994455;28;20034;-82
2023/04/30 01:02:39;;;;;;;36.03;15.55;;;;;;;11.01;57.63;100402.88;5008231;28;20460;-83
2023/04/30 01:05:06;;;;;;;34.97;15.77;;;;;;;11.00;57.07;100403.84;5008063;28;20041;-82
2023/04/30 01:07:34;;;;;;;35.75;15.57;;;;;;;11.07;57.21;100413.09;4995766;28;20022;-82
2023/04/30 01:09:59;;;;;;;44.53;16.48;;;;;;;11.10;57.19;100423.59;4994020;28;20026;-82
2023/04/30 01:12:37;;;;;;;27.58;14.77;;;;;;;11.07;57.37;100429.25;4993957;28;20425;-82
2023/04/30 01:15:23;;;;;;;29.15;14.63;;;;;;;11.06;57.50;100427.53;4994159;28;20026;-81
2023/04/30 01:18:07;;;;;;;32.97;15.60;;;;;;;11.03;57.48;100420.59;4992956;28;20037;-82
2023/04/30 01:20:34;;;;;;;39.15;15.02;;;;;;;11.01;57.66;100424.41;4993453;28;20402;-84
2023/04/30 01:23:27;;;;;;;37.75;15.98;;;;;;;11.04;57.42;100419.56;4995737;28;20026;-82
2023/04/30 01:26:01;;;;;;;36.42;14.93;;;;;;;11.07;56.74;100421.19;4996843;28;20061;-82
2023/04/30 01:28:27;;;;;;;37.47;16.20;;;;;;;11.03;56.61;100411.66;4994252;28;20076;-82
2023/04/30 01:30:53;;;;;;;40.50;16.02;;;;;;;11.05;56.93;100423.13;4993510;28;20058;-84
2023/04/30 01:33:18;;;;;;;38.75;16.02;;;;;;;11.06;56.71;100424.84;4993486;28;20032;-83
2023/04/30 01:36:20;;;;;;;31.80;13.48;;;;;;;11.03;56.79;100417.03;4993342;28;20037;-83
2023/04/30 01:39:02;;;;;;;32.17;15.98;;;;;;;11.09;56.72;100413.81;4993797;28;20088;-83
2023/04/30 01:42:06;;;;;;;29.80;15.57;;;;;;;11.02;56.79;100413.50;4992914;28;20066;-82
2023/04/30 01:44:37;;;;;;;29.30;16.70;;;;;;;10.96;57.44;100414.03;4917540;29;20031;-82
2023/04/30 01:47:28;;;;;;;23.52;15.05;;;;;;;10.96;56.88;100405.09;4933296;29;20609;-82
2023/04/30 01:50:08;;;;;;;28.75;15.60;;;;;;;10.98;57.24;100411.22;4933348;29;20027;-83
2023/04/30 01:52:57;;;;;;;32.10;15.45;;;;;;;11.01;57.12;100402.88;4933415;29;20047;-83
2023/04/30 01:56:04;;;;;;;26.48;14.93;;;;;;;10.85;57.13;100393.44;4933346;29;20068;-85
2023/04/30 01:58:30;;;;;;;32.35;16.33;;;;;;;10.86;57.38;100413.94;4878917;29;20132;-82
2023/04/30 02:00:56;;;;;;;23.85;14.43;;;;;;;10.80;57.30;100400.19;4882106;29;20028;-82
2023/04/30 02:03:21;;;;;;;32.67;16.17;;;;;;;10.79;57.43;100410.06;4882572;29;20516;-83
2023/04/30 02:05:49;;;;;;;27.45;14.90;;;;;;;10.76;57.37;100410.34;4861135;29;20132;-83
2023/04/30 02:08:14;;;;;;;30.10;15.50;;;;;;;10.70;57.82;100405.47;4876406;29;20480;-84
2023/04/30 02:10:40;;;;;;;28.27;17.30;;;;;;;10.75;57.57;100399.72;4875965;29;20041;-84
2023/04/30 02:13:06;;;;;;;31.25;16.05;;;;;;;10.65;57.78;100386.22;4875999;29;20072;-81
2023/04/30 02:15:31;;;;;;;27.58;16.67;;;;;;;10.59;57.25;100365.22;4876271;29;20544;-84
2023/04/30 02:17:56;;;;;;;33.13;15.63;;;;;;;10.77;57.19;100395.06;4898928;29;20047;-83
2023/04/30 02:20:22;;;;;;;40.47;16.20;;;;;;;10.67;57.40;100368.09;4951756;29;20055;-82
2023/04/30 02:22:47;;;;;;;33.08;16.33;;;;;;;10.56;57.45;100359.25;4951617;29;20047;-82
2023/04/30 02:25:13;;;;;;;36.85;17.48;;;;;;;10.78;57.57;100400.31;4951402;29;20045;-83
2023/04/30 02:27:38;;;;;;;28.73;16.30;;;;;;;10.65;57.74;100380.81;4951761;29;20047;-81
2023/04/30 02:30:05;;;;;;;27.58;14.98;;;;;;;10.80;57.70;100397.47;4986696;28;20105;-83
2023/04/30 02:32:30;;;;;;;32.42;15.82;;;;;;;10.68;57.61;100371.63;4992192;28;20084;-82
2023/04/30 02:34:56;;;;;;;28.25;14.30;;;;;;;10.65;57.59;100380.81;4992490;28;20112;-83
2023/04/30 02:37:21;;;;;;;34.47;16.33;;;;;;;10.71;57.72;100385.69;4993179;28;20438;-83
2023/04/30 02:39:47;;;;;;;27.02;15.65;;;;;;;10.72;57.51;100387.41;5010209;28;20038;-82
2023/04/30 02:42:13;;;;;;;113.95;24.40;;;;;;;10.53;57.54;100351.44;5002651;28;20014;-90
2023/04/30 02:44:38;;;;;;;26.38;14.15;;;;;;;10.62;57.32;100356.88;4997305;28;20030;-82
2023/04/30 02:47:04;;;;;;;39.55;14.30;;;;;;;10.72;56.97;100359.66;4992921;28;20026;-82
2023/04/30 02:49:29;;;;;;;27.52;14.95;;;;;;;10.76;57.04;100372.69;4991467;28;20034;-82
2023/04/30 02:51:55;;;;;;;36.97;15.07;;;;;;;10.66;57.25;100371.78;4991618;28;20031;-81
2023/04/30 02:54:20;;;;;;;26.83;13.65;;;;;;;10.68;57.32;100377.88;4996022;28;20050;-82
2023/04/30 02:56:46;;;;;;;28.33;14.00;;;;;;;10.72;57.39;100386.53;5005099;28;20026;-83
2023/04/30 02:59:12;;;;;;;22.52;13.95;;;;;;;10.57;57.75;100375.25;5010306;28;20026;-85
2023/04/30 03:01:37;;;;;;;27.52;14.57;;;;;;;10.70;57.89;100393.91;5003236;28;20022;-82
2023/04/30 03:04:03;;;;;;;25.95;15.10;;;;;;;10.43;58.21;100362.13;4996523;28;20035;-82
2023/04/30 03:06:30;;;;;;;28.92;14.40;;;;;;;10.47;58.17;100381.53;4996135;28;20023;-83
2023/04/30 03:08:56;;;;;;;31.35;13.88;;;;;;;10.56;58.32;100380.75;4996440;28;20030;-83
2023/04/30 03:11:21;;;;;;;35.03;14.85;;;;;;;10.52;58.13;100390.09;4996425;28;20023;-82
2023/04/30 03:13:50;;;;;;;39.33;14.30;;;;;;;10.60;58.58;100393.81;4996267;28;20048;-83
2023/04/30 03:16:17;;;;;;;26.30;14.32;;;;;;;10.63;58.84;100398.09;4996353;28;20026;-83
2023/04/30 03:18:43;;;;;;;24.77;13.93;;;;;;;10.55;58.90;100384.44;4996582;28;20715;-83
2023/04/30 03:21:09;;;;;;;22.55;13.45;;;;;;;10.28;59.03;100366.97;4996512;28;20029;-82
2023/04/30 03:23:34;;;;;;;36.65;14.48;;;;;;;10.54;59.21;100391.66;4996498;28;20396;-82
2023/04/30 03:26:00;;;;;;;24.58;14.27;;;;;;;10.57;59.16;100404.84;4996135;28;20065;-82
2023/04/30 03:28:25;;;;;;;30.75;15.02;;;;;;;10.49;59.03;100391.19;4996229;28;20121;-82
2023/04/30 03:30:51;;;;;;;35.53;14.27;;;;;;;10.42;58.71;100357.75;4994606;28;20059;-83
2023/04/30 03:33:16;;;;;;;33.67;15.82;;;;;;;10.42;59.02;100360.44;4995640;28;20465;-84
2023/04/30 03:35:42;;;;;;;33.03;14.48;;;;;;;10.54;58.74;100370.16;4996062;28;20110;-83
2023/04/30 03:38:07;;;;;;;37.60;14.50;;;;;;;10.69;58.55;100393.03;4995457;28;20030;-83
2023/04/30 03:40:33;;;;;;;32.28;14.52;;;;;;;10.63;58.54;100374.75;4995572;28;20061;-85
2023/04/30 03:42:58;;;;;;;32.35;14.90;;;;;;;10.67;58.53;100389.59;4995571;28;20019;-82
2023/04/30 03:45:24;;;;;;;44.78;15.38;;;;;;;10.75;58.57;100397.91;4995206;28;20485;-85
2023/04/30 03:47:51;;;;;;;33.22;16.27;;;;;;;10.72;58.89;100392.78;4995964;28;20471;-82
2023/04/30 03:50:17;;;;;;;38.10;15.32;;;;;;;10.82;58.75;100399.06;4993891;28;20053;-84
2023/04/30 03:52:43;;;;;;;32.20;15.82;;;;;;;10.77;58.46;100387.00;4993165;28;20046;-82
2023/04/30 03:55:09;;;;;;;28.17;14.88;;;;;;;10.80;58.33;100394.78;4989066;28;20139;-82
2023/04/30 03:57:35;;;;;;;30.17;16.10;;;;;;;10.84;58.32;100397.09;5006128;28;20053;-83
2023/04/30 04:00:06;;;;;;;29.48;15.27;;;;;;;10.90;58.60;100411.84;4996283;28;20141;-83
2023/04/30 04:02:32;;;;;;;37.65;15.75;;;;;;;10.91;58.39;100419.81;4993891;28;20105;-83
2023/04/30 04:04:57;;;;;;;37.17;15.52;;;;;;;10.97;58.10;100417.56;4992081;28;20042;-83
2023/04/30 04:07:23;;;;;;;30.13;14.35;;;;;;;10.76;57.99;100383.44;4993030;28;20506;-83
2023/04/30 04:09:48;;;;;;;32.33;15.25;;;;;;;10.98;58.70;100419.28;4992680;28;20124;-83
2023/04/30 04:12:14;;;;;;;27.80;14.13;;;;;;;11.04;57.94;100418.75;4993177;28;20728;-84
2023/04/30 04:14:39;;;;;;;35.25;15.80;;;;;;;10.78;57.46;100384.19;4993280;28;20030;-84
2023/04/30 04:17:05;;;;;;;33.13;13.68;;;;;;;10.90;58.24;100407.34;4993209;28;20066;-84
2023/04/30 04:19:30;;;;;;;23.48;13.85;;;;;;;11.16;57.58;100431.16;4993804;28;20045;-82
2023/04/30 04:21:56;;;;;;;37.83;14.63;;;;;;;11.14;57.18;100419.63;4994665;28;20045;-82
2023/04/30 04:24:24;;;;;;;26.75;14.27;;;;;;;11.07;57.68;100396.97;4995523;28;20085;-82
2023/04/30 04:26:50;;;;;;;22.25;13.05;;;;;;;11.16;57.01;100402.38;4995783;28;20031;-82
2023/04/30 04:29:15;;;;;;;26.02;13.93;;;;;;;11.28;57.30;100411.22;4995319;28;20030;-84
2023/04/30 04:31:41;;;;;;;32.83;13.70;;;;;;;11.44;57.95;100435.78;5010680;28;20050;-87
2023/04/30 04:34:07;;;;;;;22.08;14.02;;;;;;;11.46;57.17;100420.38;5004759;28;20037;-81
2023/04/30 04:36:33;;;;;;;27.33;14.48;;;;;;;11.57;56.99;100420.28;5013648;28;20054;-83
2023/04/30 04:39:01;;;;;;;33.45;14.93;;;;;;;11.61;56.59;100416.31;5009449;28;20027;-83
2023/04/30 04:41:36;;;;;;;24.23;13.82;;;;;;;11.80;56.36;100429.03;5014932;28;20030;-80
2023/04/30 04:44:02;;;;;;;30.98;14.63;;;;;;;11.85;56.02;100426.78;5014971;28;20054;-83
2023/04/30 04:46:28;;;;;;;32.78;13.48;;;;;;;11.75;56.12;100405.19;5005275;28;20023;-86
2023/04/30 04:48:54;;;;;;;24.77;13.65;;;;;;;11.79;56.26;100417.41;4996247;28;20030;-84
2023/04/30 04:51:20;;;;;;;20.00;12.20;;;;;;;11.87;55.96;100409.47;5010293;28;20030;-89
2023/04/30 04:53:45;;;;;;;26.60;13.15;;;;;;;11.91;55.66;100401.97;5009265;28;20093;-89
2023/04/30 04:56:11;;;;;;;35.00;14.60;;;;;;;11.94;55.54;100405.25;4999524;28;20506;-82
2023/04/30 04:58:37;;;;;;;35.13;15.27;;;;;;;11.97;55.44;100388.78;4994473;28;20556;-82
2023/04/30 05:01:04;;;;;;;27.45;14.65;;;;;;;12.07;55.54;100401.44;4993895;28;20037;-78
2023/04/30 05:03:31;;;;;;;38.85;14.85;;;;;;;12.16;55.21;100414.94;4994299;28;20545;-84
2023/04/30 05:05:57;;;;;;;54.55;22.75;;;;;;;12.16;55.76;100414.06;4994844;28;20469;-85
2023/04/30 05:08:23;;;;;;;30.90;16.88;;;;;;;12.29;55.19;100415.50;4994567;28;20062;-85
2023/04/30 05:10:48;;;;;;;45.47;15.38;;;;;;;12.31;55.62;100412.66;4994799;28;20061;-85
2023/04/30 05:13:14;;;;;;;38.88;15.20;;;;;;;12.26;55.01;100387.97;4992375;28;20533;-80
2023/04/30 05:15:39;;;;;;;31.35;15.25;;;;;;;12.58;55.27;100423.59;4992800;28;20088;-79
2023/04/30 05:18:05;;;;;;;34.15;14.45;;;;;;;12.77;54.63;100437.09;4992971;28;20030;-77
2023/04/30 05:20:30;;;;;;;27.80;15.48;;;;;;;12.81;54.78;100421.47;4992884;28;20409;-79
2023/04/30 05:22:56;;;;;;;33.13;15.43;;;;;;;13.04;54.73;100434.47;4992757;28;20065;-82
2023/04/30 05:25:21;;;;;;;29.30;15.38;;;;;;;13.17;54.62;100434.22;4993036;28;20038;-81
2023/04/30 05:27:47;;;;;;;30.77;16.40;;;;;;;13.08;54.82;100422.44;4991106;28;20491;-85
2023/04/30 05:30:14;;;;;;;29.42;16.25;;;;;;;13.30;54.88;100432.00;4991955;28;20046;-80
2023/04/30 05:32:40;;;;;;;38.47;15.52;;;;;;;13.14;54.60;100398.53;4992922;28;20030;-81
2023/04/30 05:35:06;;;;;;;25.48;15.20;;;;;;;13.40;54.11;100413.94;4994467;28;20084;-82
2023/04/30 05:37:39;;;;;;;34.22;15.85;;;;;;;13.55;53.97;100423.25;5090124;27;20377;-87
2023/04/30 05:40:05;;;;;;;24.67;15.65;;;;;;;13.66;53.92;100414.13;5088671;28;20028;-77
2023/04/30 05:42:31;;;;;;;25.83;14.63;;;;;;;13.69;53.43;100416.53;5089566;28;20264;-83
2023/04/30 05:45:00;;;;;;;33.97;15.93;;;;;;;13.71;53.02;100395.59;5087715;28;20521;-81
2023/04/30 05:47:25;;;;;;;33.92;16.00;;;;;;;13.88;53.46;100408.28;5091114;28;20475;-81
2023/04/30 05:49:51;;;;;;;37.05;14.52;;;;;;;14.08;52.89;100427.97;5094947;28;20077;-85
2023/04/30 05:52:16;;;;;;;37.38;15.10;;;;;;;14.19;52.58;100419.63;5092410;28;20032;-84
2023/04/30 05:54:42;;;;;;;24.70;13.57;;;;;;;14.43;52.41;100429.91;5089247;28;20054;-85
2023/04/30 05:57:08;;;;;;;21.67;12.75;;;;;;;14.52;52.29;100429.81;5087776;28;20396;-84
2023/04/30 05:59:36;;;;;;;29.05;13.18;;;;;;;14.75;51.69;100432.88;5089256;28;20032;-85
2023/04/30 06:02:01;;;;;;;21.98;12.00;;;;;;;14.88;51.14;100436.06;5088079;28;20471;-83
2023/04/30 06:04:27;;;;;;;28.02;11.00;;;;;;;14.90;50.61;100417.78;5087179;28;20025;-83
2023/04/30 06:06:53;;;;;;;29.80;12.27;;;;;;;15.07;50.25;100414.19;5087070;28;20037;-86
2023/04/30 06:09:18;;;;;;;23.33;12.10;;;;;;;15.18;49.07;100411.22;5086183;28;20031;-81
2023/04/30 06:11:44;;;;;;;22.88;11.23;;;;;;;15.43;48.81;100430.31;5088753;28;20029;-86
2023/04/30 06:14:10;;;;;;;28.17;10.43;;;;;;;15.49;48.26;100416.16;5089066;28;20035;-91
2023/04/30 06:16:35;;;;;;;26.58;11.90;;;;;;;15.66;47.72;100429.63;5088935;28;20028;-81
2023/04/30 06:19:01;;;;;;;25.90;14.20;;;;;;;15.84;48.06;100432.25;5088200;28;20113;-85
2023/04/30 06:21:26;;;;;;;21.52;13.48;;;;;;;15.99;47.55;100438.75;5087486;28;20034;-86
2023/04/30 06:23:52;;;;;;;28.83;14.90;;;;;;;16.12;47.54;100428.28;5088969;28;20079;-83
2023/04/30 06:26:18;;;;;;;30.25;15.07;;;;;;;16.24;47.51;100432.38;5089160;28;20214;-79
2023/04/30 06:28:45;;;;;;;31.77;15.63;;;;;;;16.25;47.23;100406.97;5091821;28;20024;-82
2023/04/30 06:31:10;;;;;;;28.88;13.75;;;;;;;16.39;47.08;100420.91;5091397;28;20028;-84
2023/04/30 06:33:36;;;;;;;26.27;14.57;;;;;;;16.61;46.31;100439.25;5088323;28;20032;-83
2023/04/30 06:36:01;;;;;;;34.45;13.63;;;;;;;16.57;45.96;100421.63;5092548;28;20469;-83
2023/04/30 06:38:28;;;;;;;12.13;7.25;;;;;;;16.51;43.46;100386.97;5108589;28;20028;-83
2023/04/30 06:40:53;;;;;;;28.08;10.73;;;;;;;16.65;43.39;100405.34;5092818;28;20028;-85
2023/04/30 06:43:19;;;;;;;9.30;3.78;;;;;;;16.83;37.70;100414.16;5096294;28;20028;-91
2023/04/30 06:45:44;;;;;;;11.43;4.10;;;;;;;17.01;37.11;100435.72;5109416;28;20032;-90
2023/04/30 06:48:10;;;;;;;15.07;3.60;;;;;;;17.13;36.72;100429.75;5092702;28;20082;-84
2023/04/30 06:50:42;;;;;;;4.75;2.83;;;;;;;17.20;34.64;100419.06;5073658;28;20048;-84
2023/04/30 06:53:08;;;;;;;10.93;2.90;;;;;;;17.16;33.92;100407.66;5074224;28;20025;-82
2023/04/30 06:55:33;;;;;;;15.40;3.67;;;;;;;17.19;34.26;100401.03;5073663;28;20024;-84
2023/04/30 06:57:59;;;;;;;8.52;3.03;;;;;;;17.37;33.11;100437.88;5073315;28;20037;-87
2023/04/30 07:00:25;;;;;;;7.25;2.92;;;;;;;17.32;32.64;100418.53;5074186;28;20441;-87
2023/04/30 07:02:50;;;;;;;18.13;3.60;;;;;;;17.25;32.69;100403.06;5075292;28;20028;-89
2023/04/30 07:05:16;;;;;;;13.07;3.63;;;;;;;17.51;33.16;100428.16;5073969;28;20032;-92
2023/04/30 07:07:42;;;;;;;10.38;4.22;;;;;;;17.59;33.05;100430.03;5072565;28;20036;-87
2023/04/30 07:10:07;;;;;;;14.20;3.83;;;;;;;17.70;31.84;100421.50;5073605;28;20028;-84
2023/04/30 07:12:33;;;;;;;8.73;3.90;;;;;;;17.73;31.89;100427.47;5073998;28;20032;-81
2023/04/30 07:14:58;;;;;;;10.57;3.42;;;;;;;17.80;32.10;100422.97;5073896;28;20024;-82
2023/04/30 07:17:24;;;;;;;16.30;5.68;;;;;;;17.80;32.21;100412.09;5073576;28;20451;-82
2023/04/30 07:19:49;;;;;;;14.63;4.53;;;;;;;17.80;32.25;100403.09;5074366;28;20021;-78
2023/04/30 07:22:15;;;;;;;14.35;3.42;;;;;;;18.04;32.81;100435.63;5074293;28;20029;-81
2023/04/30 07:24:41;;;;;;;13.25;3.50;;;;;;;18.11;32.34;100422.16;5072496;28;20031;-80
2023/04/30 07:27:07;;;;;;;8.20;3.35;;;;;;;18.20;32.54;100438.28;5072858;28;20069;-83
2023/04/30 07:29:32;;;;;;;11.55;3.95;;;;;;;18.16;32.63;100431.50;5069365;28;20078;-81
2023/04/30 07:31:58;;;;;;;17.50;5.20;;;;;;;18.26;32.89;100448.44;5071212;28;20040;-86
2023/04/30 07:34:24;;;;;;;10.15;5.50;;;;;;;18.21;33.24;100431.81;5074202;28;20027;-84
2023/04/30 07:36:49;;;;;;;20.08;3.58;;;;;;;18.23;33.46;100431.63;5073965;28;20446;-85
2023/04/30 07:39:15;;;;;;;13.45;4.18;;;;;;;18.24;33.43;100430.59;5074215;28;20025;-83
2023/04/30 07:41:41;;;;;;;6.65;3.35;;;;;;;18.27;33.53;100424.81;5085530;28;20058;-83
2023/04/30 07:44:06;;;;;;;8.00;3.08;;;;;;;18.39;33.67;100431.53;5087811;28;20036;-84
2023/04/30 07:46:32;;;;;;;9.43;4.25;;;;;;;18.52;33.79;100440.00;5071250;28;20090;-83
2023/04/30 07:48:58;;;;;;;6.15;3.53;;;;;;;18.55;33.72;100427.88;5072063;28;20207;-85
2023/04/30 07:51:23;;;;;;;15.65;4.53;;;;;;;18.69;33.75;100438.00;5069351;28;20163;-84
2023/04/30 07:53:48;;;;;;;24.38;3.72;;;;;;;18.67;34.13;100429.16;5071200;28;20021;-83
2023/04/30 07:56:14;;;;;;;14.45;4.05;;;;;;;18.74;34.48;100424.69;5071250;28;20526;-86
2023/04/30 07:58:40;;;;;;;13.40;3.90;;;;;;;18.63;34.28;100406.03;5072299;28;20361;-82
2023/04/30 08:01:06;;;;;;;11.82;4.05;;;;;;;18.64;34.10;100424.06;5072737;28;20025;-87
2023/04/30 08:03:32;;;;;;;11.25;6.25;;;;;;;18.68;34.21;100422.69;5070485;28;20059;-82
2023/04/30 08:05:57;;;;;;;14.75;3.35;;;;;;;18.80;34.67;100430.25;5071685;28;20064;-82
2023/04/30 08:08:23;;;;;;;14.55;4.63;;;;;;;18.89;35.06;100421.00;5070141;28;20525;-82
2023/04/30 08:10:48;;;;;;;15.55;5.05;;;;;;;19.03;35.08;100432.94;5070455;28;20028;-86
2023/04/30 08:13:13;;;;;;;19.95;5.05;;;;;;;19.07;34.80;100417.06;5070522;28;20021;-85
2023/04/30 08:15:39;;;;;;;9.48;4.07;;;;;;;19.05;34.63;100391.88;5070377;28;20502;-84
2023/04/30 08:18:05;;;;;;;9.25;3.92;;;;;;;19.23;34.63;100414.19;5070409;28;20185;-81
2023/04/30 08:20:31;;;;;;;7.78;3.65;;;;;;;19.16;34.68;100386.81;5069544;28;20024;-84
2023/04/30 08:22:56;;;;;;;8.20;4.05;;;;;;;19.49;34.56;100417.34;5070365;28;20032;-86
2023/04/30 08:25:22;;;;;;;8.45;3.58;;;;;;;19.43;34.10;100418.09;5068404;28;20029;-81
2023/04/30 08:27:47;;;;;;;5.45;3.55;;;;;;;19.33;34.11;100393.78;5070811;28;20032;-84
2023/04/30 08:30:13;;;;;;;14.50;4.07;;;;;;;19.57;34.21;100410.97;5073687;28;20016;-81
2023/04/30 08:32:38;;;;;;;9.70;3.78;;;;;;;19.63;34.50;100404.75;5081957;28;20025;-84
2023/04/30 08:35:05;;;;;;;16.00;3.78;;;;;;;19.58;34.21;100386.22;5087921;28;20019;-85
2023/04/30 08:37:30;;;;;;;6.40;3.95;;;;;;;19.74;34.22;100415.19;5088119;28;20052;-90
2023/04/30 08:39:56;;;;;;;16.48;3.72;;;;;;;19.73;33.84;100400.69;5087999;28;20494;-89
2023/04/30 08:42:28;;;;;;;6.57;3.53;;;;;;;19.72;33.92;100407.22;5074462;28;20040;-85
2023/04/30 08:44:53;;;;;;;8.23;3.25;;;;;;;19.69;34.18;100398.53;5071356;28;20029;-85
2023/04/30 08:47:20;;;;;;;7.20;4.10;;;;;;;19.71;33.65;100399.19;5073211;28;20043;-86
2023/04/30 08:49:46;;;;;;;13.02;3.55;;;;;;;19.69;34.06;100413.03;5070967;28;20071;-85
2023/04/30 08:52:11;;;;;;;14.40;4.80;;;;;;;19.51;33.91;100377.94;5070671;28;20056;-84
2023/04/30 08:54:37;;;;;;;7.65;3.88;;;;;;;19.57;34.38;100383.69;5071911;28;20024;-84
2023/04/30 08:57:03;;;;;;;11.68;3.53;;;;;;;19.78;33.86;100403.72;5075758;28;20036;-83
2023/04/30 08:59:29;;;;;;;12.18;3.78;;;;;;;19.77;33.87;100382.06;5073636;28;20095;-85
2023/04/30 09:01:55;;;;;;;12.63;4.22;;;;;;;19.71;34.02;100382.81;5075289;28;20071;-86
2023/04/30 09:04:20;;;;;;;11.98;4.63;;;;;;;19.89;34.00;100397.78;5072181;28;20405;-90
2023/04/30 09:06:46;;;;;;;12.50;4.32;;;;;;;19.82;33.97;100374.13;5087251;28;20039;-86
2023/04/30 09:09:13;;;;;;;18.27;4.60;;;;;;;20.05;33.71;100407.63;5072241;28;20082;-86
2023/04/30 09:11:40;;;;;;;12.00;3.35;;;;;;;20.04;33.08;100392.28;5077128;28;20021;-86
2023/04/30 09:14:06;;;;;;;10.52;4.25;;;;;;;19.98;33.17;100382.13;5075549;28;20025;-86
2023/04/30 09:16:46;;;;;;;11.40;3.38;;;;;;;20.11;33.46;100395.94;5075393;28;20040;-84
2023/04/30 09:19:29;;;;;;;12.70;4.25;;;;;;;20.05;33.90;100355.75;5080753;28;20032;-86
2023/04/30 09:21:55;;;;;;;15.07;3.67;;;;;;;20.22;33.47;100381.78;5082335;28;20032;-88
2023/04/30 09:24:21;;;;;;;16.42;3.65;;;;;;;20.31;33.25;100382.53;5083632;28;20082;-85
2023/04/30 09:26:48;;;;;;;9.20;3.67;;;;;;;20.35;33.31;100384.69;5091622;28;20083;-86
2023/04/30 09:29:13;;;;;;;9.68;3.85;;;;;;;20.37;32.36;100379.03;5082378;28;20036;-85
2023/04/30 09:31:42;;;;;;;13.05;4.25;;;;;;;20.40;32.62;100374.00;5074180;28;20080;-86
2023/04/30 09:34:07;;;;;;;9.93;3.65;;;;;;;20.22;32.48;100353.63;5077853;28;20364;-87
2023/04/30 09:36:34;;;;;;;6.78;3.47;;;;;;;20.38;32.59;100370.66;5080293;28;20064;-85
2023/04/30 09:39:16;;;;;;;9.10;3.72;;;;;;;20.48;32.66;100386.72;5079165;28;20024;-87
2023/04/30 09:41:43;;;;;;;8.82;3.95;;;;;;;20.45;32.68;100357.91;5072401;28;20044;-85
2023/04/30 09:44:26;;;;;;;13.90;4.60;;;;;;;20.59;32.54;100361.59;5070544;28;20078;-86
2023/04/30 09:46:51;;;;;;;12.95;4.53;;;;;;;20.42;32.96;100352.84;5069230;28;20039;-89
2023/04/30 09:49:18;;;;;;;19.55;5.07;;;;;;;20.64;32.92;100351.75;5070230;28;20024;-87
2023/04/30 09:52:10;;;;;;;12.98;4.40;;;;;;;20.87;32.83;100365.22;5070234;28;20116;-86
2023/04/30 09:54:37;;;;;;;17.63;4.10;;;;;;;20.93;33.05;100366.31;5047942;28;20650;-85
2023/04/30 09:57:02;;;;;;;11.15;3.85;;;;;;;20.95;32.86;100364.22;5047949;28;20123;-86
2023/04/30 09:59:30;;;;;;;10.68;4.30;;;;;;;21.04;32.26;100354.81;5032654;28;20144;-86
2023/04/30 10:02:00;;;;;;;9.45;3.85;;;;;;;21.18;32.67;100362.13;5049233;28;20033;-83
2023/04/30 10:04:30;;;;;;;11.07;3.67;;;;;;;21.27;32.20;100349.13;5048186;28;20021;-85
2023/04/30 10:06:59;;;;;;;8.38;3.63;;;;;;;21.32;31.88;100361.16;5049872;28;20515;-85
2023/04/30 10:09:38;;;;;;;11.95;3.95;;;;;;;21.46;31.81;100354.75;5048476;28;20086;-86
2023/04/30 10:12:10;;;;;;;11.57;4.30;;;;;;;21.32;31.78;100324.75;5048609;28;20105;-87
2023/04/30 10:14:36;;;;;;;9.57;4.35;;;;;;;21.58;32.31;100344.06;5047854;28;20053;-88
2023/04/30 10:17:25;;;;;;;10.05;3.78;;;;;;;21.78;32.03;100355.94;5047903;28;20029;-85
2023/04/30 10:19:55;;;;;;;16.88;3.72;;;;;;;21.85;31.40;100359.56;5048633;28;20021;-86
2023/04/30 10:22:20;;;;;;;11.18;4.32;;;;;;;21.86;31.31;100360.41;5050882;28;20503;-86
2023/04/30 10:24:47;;;;;;;9.40;3.47;;;;;;;21.87;30.86;100348.38;5053196;28;20037;-85
2023/04/30 10:27:13;;;;;;;19.02;4.38;;;;;;;21.97;30.76;100362.56;5059015;28;20040;-85
2023/04/30 10:29:38;;;;;;;9.60;3.38;;;;;;;21.81;30.85;100355.53;5065725;28;20029;-86
2023/04/30 10:32:05;;;;;;;9.15;2.92;;;;;;;21.90;30.80;100350.75;5085220;28;20036;-86
2023/04/30 10:34:59;;;;;;;22.27;4.15;;;;;;;21.87;30.77;100345.66;5093283;28;20016;-86
2023/04/30 10:37:44;;;;;;;15.85;3.90;;;;;;;21.99;31.21;100361.31;5052180;28;20052;-85
2023/04/30 10:40:10;;;;;;;7.63;3.05;;;;;;;22.15;30.98;100335.44;5034806;28;20484;-86
2023/04/30 10:42:35;;;;;;;8.68;3.63;;;;;;;22.39;30.67;100353.19;5052436;28;20111;-86
2023/04/30 10:45:04;;;;;;;13.43;3.67;;;;;;;22.48;30.21;100354.69;5051996;28;20025;-86
2023/04/30 10:47:30;;;;;;;15.00;3.45;;;;;;;22.55;30.13;100329.00;5035078;28;20464;-87
2023/04/30 10:50:07;;;;;;;12.90;3.53;;;;;;;22.58;29.64;100339.53;5051389;28;20129;-84
2023/04/30 10:52:33;;;;;;;5.40;2.53;;;;;;;22.74;29.93;100343.81;5052212;28;20631;-85
2023/04/30 10:55:04;;;;;;;7.45;3.25;;;;;;;22.86;29.50;100344.88;5051453;28;20072;-86
2023/04/30 10:57:29;;;;;;;11.77;3.40;;;;;;;22.72;29.39;100349.47;5051203;28;20510;-86
2023/04/30 11:00:06;;;;;;;10.23;3.17;;;;;;;22.83;29.62;100347.19;5051746;28;20029;-85
2023/04/30 11:02:43;;;;;;;8.80;3.65;;;;;;;22.85;29.38;100328.59;5051054;28;20040;-86
2023/04/30 11:05:14;;;;;;;14.35;4.47;;;;;;;22.98;29.31;100334.09;5051589;28;20479;-84
2023/04/30 11:07:49;;;;;;;11.98;5.07;;;;;;;23.18;29.44;100334.91;5053606;28;20048;-86
2023/04/30 11:10:16;;;;;;;11.80;3.97;;;;;;;23.48;28.57;100332.56;5050449;28;20028;-86
2023/04/30 11:12:48;;;;;;;15.70;3.70;;;;;;;23.49;28.40;100348.81;5051216;28;20033;-87
2023/04/30 11:15:16;;;;;;;14.75;4.95;;;;;;;23.53;28.38;100343.72;5070688;28;20040;-88
2023/04/30 11:17:47;;;;;;;7.45;3.65;;;;;;;23.42;28.31;100326.03;5071171;28;20039;-86